createdAt,value
2017-05-21T00:00:37.920Z,9.70
2017-05-21T00:03:06.743Z,9.70
2017-05-21T00:05:35.564Z,9.60
2017-05-21T00:08:04.396Z,9.70
2017-05-21T00:10:32.454Z,9.70
2017-05-21T00:13:01.300Z,10.10
2017-05-21T00:15:30.124Z,10.20
2017-05-21T00:17:58.963Z,10.00
2017-05-21T00:20:27.807Z,10.20
2017-05-21T00:22:56.673Z,9.90
2017-05-21T00:25:25.523Z,9.70
2017-05-21T00:27:54.371Z,10.00
2017-05-21T00:30:23.202Z,10.20
2017-05-21T00:32:52.029Z,10.20
2017-05-21T00:35:20.879Z,10.20
2017-05-21T00:37:49.700Z,9.70
2017-05-21T00:40:18.533Z,9.60
2017-05-21T00:42:47.382Z,9.80
2017-05-21T00:45:16.219Z,9.80
2017-05-21T00:47:45.052Z,9.90
2017-05-21T00:50:13.902Z,10.00
2017-05-21T00:52:42.752Z,10.10
2017-05-21T00:55:11.584Z,10.10
2017-05-21T00:57:40.420Z,9.60
2017-05-21T01:00:09.260Z,9.40
2017-05-21T01:02:38.106Z,9.60
2017-05-21T01:05:06.936Z,9.50
2017-05-21T01:07:35.779Z,9.20
2017-05-21T01:10:04.603Z,9.30
2017-05-21T01:12:33.458Z,9.30
2017-05-21T01:15:02.279Z,9.40
2017-05-21T01:17:31.111Z,9.10
2017-05-21T01:19:59.949Z,9.40
2017-05-21T01:22:28.771Z,9.40
2017-05-21T01:24:57.603Z,9.40
2017-05-21T01:27:26.442Z,9.50
2017-05-21T01:29:55.277Z,9.10
2017-05-21T01:32:24.108Z,8.70
2017-05-21T01:34:52.949Z,8.80
2017-05-21T01:37:21.794Z,9.00
2017-05-21T01:39:50.638Z,9.20
2017-05-21T01:42:19.476Z,9.50
2017-05-21T01:44:48.315Z,9.60
2017-05-21T01:47:17.170Z,9.60
2017-05-21T01:49:46.017Z,9.60
2017-05-21T01:52:14.835Z,8.80
2017-05-21T01:54:43.664Z,8.30
2017-05-21T01:57:12.503Z,8.30
2017-05-21T01:59:41.337Z,8.50
2017-05-21T02:02:10.172Z,8.70
2017-05-21T02:04:39.025Z,8.90
2017-05-21T02:07:07.849Z,8.60
2017-05-21T02:09:36.692Z,8.90
2017-05-21T02:12:05.520Z,9.20
2017-05-21T02:14:33.584Z,9.10
2017-05-21T02:17:02.414Z,9.50
2017-05-21T02:19:31.249Z,9.30
2017-05-21T02:22:00.074Z,9.40
2017-05-21T02:24:28.923Z,9.30
2017-05-21T02:26:57.767Z,9.30
2017-05-21T02:29:26.595Z,9.40
2017-05-21T02:31:55.450Z,9.10
2017-05-21T02:34:24.294Z,9.10
2017-05-21T02:36:53.123Z,8.80
2017-05-21T02:39:21.956Z,8.80
2017-05-21T02:41:50.783Z,8.50
2017-05-21T02:44:19.619Z,8.40
2017-05-21T02:46:48.447Z,8.50
2017-05-21T02:49:17.292Z,8.60
2017-05-21T02:51:45.350Z,8.60
2017-05-21T02:54:14.200Z,8.50
2017-05-21T02:56:43.020Z,8.50
2017-05-21T02:59:11.870Z,8.70
2017-05-21T03:01:40.716Z,8.90
2017-05-21T03:04:09.543Z,8.90
2017-05-21T03:06:38.387Z,9.10
2017-05-21T03:09:07.215Z,9.10
2017-05-21T03:11:36.046Z,9.10
2017-05-21T03:14:04.884Z,9.20
2017-05-21T03:16:33.743Z,9.20
2017-05-21T03:19:02.580Z,9.20
2017-05-21T03:21:31.425Z,9.20
2017-05-21T03:24:00.452Z,9.10
2017-05-21T03:26:29.545Z,9.00
2017-05-21T03:28:58.639Z,8.80
2017-05-21T03:31:27.737Z,8.10
2017-05-21T03:33:56.568Z,8.00
2017-05-21T03:36:25.513Z,7.80
2017-05-21T03:38:54.376Z,7.60
2017-05-21T03:41:23.199Z,7.80
2017-05-21T03:43:52.125Z,8.00
2017-05-21T03:46:20.972Z,8.40
2017-05-21T03:48:49.831Z,8.50
2017-05-21T03:51:18.671Z,8.70
2017-05-21T03:53:47.502Z,8.60
2017-05-21T03:56:16.354Z,8.70
2017-05-21T03:58:46.123Z,8.90
2017-05-21T04:01:14.214Z,8.90
2017-05-21T04:03:43.071Z,8.90
2017-05-21T04:06:11.910Z,9.00
2017-05-21T04:08:40.740Z,9.00
2017-05-21T04:11:09.569Z,9.00
2017-05-21T04:13:38.435Z,9.00
2017-05-21T04:16:07.267Z,9.00
2017-05-21T04:18:36.104Z,9.10
2017-05-21T04:21:04.928Z,9.00
2017-05-21T04:23:33.800Z,8.70
2017-05-21T04:26:02.645Z,8.70
2017-05-21T04:28:31.480Z,8.30
2017-05-21T04:31:00.354Z,8.00
2017-05-21T04:33:29.359Z,7.70
2017-05-21T04:35:58.237Z,7.70
2017-05-21T04:38:27.022Z,7.80
2017-05-21T04:40:55.880Z,8.20
2017-05-21T04:43:24.718Z,8.30
2017-05-21T04:45:53.587Z,8.80
2017-05-21T04:48:22.420Z,9.30
2017-05-21T04:50:51.278Z,9.60
2017-05-21T04:53:20.117Z,9.80
2017-05-21T04:55:48.946Z,9.90
2017-05-21T04:58:17.021Z,9.90
2017-05-21T05:00:45.869Z,10.60
2017-05-21T05:03:14.705Z,11.10
2017-05-21T05:05:43.536Z,11.30
2017-05-21T05:08:12.392Z,11.50
2017-05-21T05:10:40.472Z,11.50
2017-05-21T05:13:09.326Z,12.10
2017-05-21T05:15:38.183Z,12.30
2017-05-21T05:18:07.011Z,12.50
2017-05-21T05:20:35.850Z,12.60
2017-05-21T05:23:04.701Z,12.80
2017-05-21T05:25:32.776Z,12.80
2017-05-21T05:28:01.610Z,13.00
2017-05-21T05:30:30.450Z,13.00
2017-05-21T05:32:59.272Z,13.10
2017-05-21T05:35:28.119Z,13.50
2017-05-21T05:37:56.980Z,13.70
2017-05-21T05:40:25.803Z,13.60
2017-05-21T05:42:54.659Z,13.60
2017-05-21T05:45:23.486Z,13.90
2017-05-21T05:47:53.315Z,13.50
2017-05-21T05:50:22.158Z,13.80
2017-05-21T05:52:51.012Z,14.10
2017-05-21T05:55:19.858Z,14.00
2017-05-21T05:57:48.706Z,13.90
2017-05-21T06:00:17.582Z,14.00
2017-05-21T06:02:46.439Z,13.80
2017-05-21T06:05:15.269Z,14.40
2017-05-21T06:07:44.119Z,14.70
2017-05-21T06:10:12.970Z,14.80
2017-05-21T06:12:41.808Z,15.00
2017-05-21T06:15:10.676Z,15.20
2017-05-21T06:17:39.507Z,15.30
2017-05-21T06:20:08.347Z,15.30
2017-05-21T06:22:37.179Z,15.50
2017-05-21T06:25:06.032Z,15.70
2017-05-21T06:27:34.883Z,15.80
2017-05-21T06:30:03.720Z,16.00
2017-05-21T06:32:32.560Z,16.20
2017-05-21T06:35:01.396Z,16.20
2017-05-21T06:37:30.245Z,16.10
2017-05-21T06:39:59.081Z,16.30
2017-05-21T06:42:27.907Z,15.60
2017-05-21T06:44:56.748Z,14.80
2017-05-21T06:47:25.597Z,14.60
2017-05-21T06:49:54.442Z,14.80
2017-05-21T06:52:23.268Z,15.90
2017-05-21T06:54:52.120Z,16.50
2017-05-21T06:57:20.944Z,16.80
2017-05-21T06:59:49.810Z,17.00
2017-05-21T07:02:18.640Z,17.40
2017-05-21T07:04:47.476Z,17.60
2017-05-21T07:07:16.328Z,17.90
2017-05-21T07:09:45.162Z,18.20
2017-05-21T07:12:14.005Z,18.40
2017-05-21T07:14:42.868Z,18.40
2017-05-21T07:17:11.695Z,18.30
2017-05-21T07:19:40.543Z,18.60
2017-05-21T07:22:09.399Z,18.70
2017-05-21T07:24:38.244Z,18.60
2017-05-21T07:27:07.069Z,18.90
2017-05-21T07:29:35.927Z,19.10
2017-05-21T07:32:04.753Z,18.90
2017-05-21T07:34:33.586Z,19.30
2017-05-21T07:37:02.427Z,19.50
2017-05-21T07:39:31.257Z,19.60
2017-05-21T07:42:00.088Z,19.70
2017-05-21T07:44:28.951Z,19.00
2017-05-21T07:46:57.819Z,19.10
2017-05-21T07:49:26.639Z,19.90
2017-05-21T07:51:55.475Z,20.30
2017-05-21T07:54:24.332Z,20.40
2017-05-21T07:56:53.171Z,20.60
2017-05-21T07:59:22.045Z,20.40
2017-05-21T08:01:50.892Z,20.60
2017-05-21T08:04:19.717Z,20.20
2017-05-21T08:06:48.569Z,20.80
2017-05-21T08:09:17.420Z,21.30
2017-05-21T08:11:45.484Z,21.20
2017-05-21T08:14:14.320Z,21.10
2017-05-21T08:16:43.171Z,21.20
2017-05-21T08:19:12.008Z,21.30
2017-05-21T08:21:40.876Z,21.30
2017-05-21T08:24:09.726Z,21.70
2017-05-21T08:26:38.559Z,22.00
2017-05-21T08:29:07.409Z,21.30
2017-05-21T08:31:36.251Z,21.60
2017-05-21T08:34:05.192Z,21.60
2017-05-21T08:36:34.051Z,21.70
2017-05-21T08:39:02.875Z,22.10
2017-05-21T08:41:31.716Z,22.60
2017-05-21T08:44:00.572Z,23.00
2017-05-21T08:46:29.407Z,22.90
2017-05-21T08:48:58.267Z,23.00
2017-05-21T08:51:27.132Z,23.30
2017-05-21T08:53:55.959Z,22.90
2017-05-21T08:56:24.806Z,22.70
2017-05-21T08:58:53.656Z,22.10
2017-05-21T09:01:22.490Z,22.60
2017-05-21T09:03:51.348Z,23.20
2017-05-21T09:06:20.192Z,23.70
2017-05-21T09:08:49.051Z,23.70
2017-05-21T09:11:17.899Z,24.00
2017-05-21T09:13:46.841Z,23.00
2017-05-21T09:16:15.684Z,24.30
2017-05-21T09:18:44.516Z,25.10
2017-05-21T09:21:13.378Z,25.80
2017-05-21T09:23:42.210Z,25.60
2017-05-21T09:26:11.076Z,26.00
2017-05-21T09:28:39.903Z,25.90
2017-05-21T09:31:08.757Z,26.20
2017-05-21T09:33:37.579Z,26.10
2017-05-21T09:36:06.428Z,26.20
2017-05-21T09:38:35.283Z,26.40
2017-05-21T09:41:04.109Z,25.70
2017-05-21T09:43:32.949Z,26.30
2017-05-21T09:46:01.776Z,26.40
2017-05-21T09:48:30.647Z,25.80
2017-05-21T09:50:59.491Z,25.70
2017-05-21T09:53:28.477Z,25.80
2017-05-21T09:55:57.333Z,25.60
2017-05-21T09:58:26.174Z,25.80
2017-05-21T10:00:55.022Z,25.00
2017-05-21T10:03:23.899Z,24.20
2017-05-21T10:05:52.749Z,23.60
2017-05-21T10:08:21.611Z,25.00
2017-05-21T10:10:50.465Z,23.60
2017-05-21T10:13:19.316Z,24.30
2017-05-21T10:15:48.157Z,24.10
2017-05-21T10:18:16.997Z,22.80
2017-05-21T10:20:45.852Z,22.30
2017-05-21T10:23:14.685Z,22.50
2017-05-21T10:25:43.513Z,22.20
2017-05-21T10:28:12.345Z,22.30
2017-05-21T10:30:41.181Z,22.70
2017-05-21T10:33:10.034Z,23.90
2017-05-21T10:35:39.279Z,24.80
2017-05-21T10:38:08.161Z,25.50
2017-05-21T10:40:37.016Z,25.70
2017-05-21T10:43:05.868Z,24.80
2017-05-21T10:45:34.716Z,24.60
2017-05-21T10:48:03.553Z,24.40
2017-05-21T10:50:32.410Z,24.30
2017-05-21T10:53:01.270Z,25.00
2017-05-21T10:55:30.131Z,25.50
2017-05-21T10:57:58.970Z,25.40
2017-05-21T11:00:27.052Z,25.40
2017-05-21T11:02:55.897Z,25.60
2017-05-21T11:05:24.736Z,25.40
2017-05-21T11:07:53.588Z,24.60
2017-05-21T11:10:22.413Z,24.20
2017-05-21T11:12:51.279Z,24.70
2017-05-21T11:15:20.119Z,25.50
2017-05-21T11:17:48.971Z,25.50
2017-05-21T11:20:17.813Z,26.00
2017-05-21T11:22:46.636Z,26.40
2017-05-21T11:25:15.583Z,26.90
2017-05-21T11:27:44.440Z,27.50
2017-05-21T11:30:12.519Z,27.50
2017-05-21T11:32:41.700Z,27.70
2017-05-21T11:35:09.750Z,27.70
2017-05-21T11:37:38.579Z,27.60
2017-05-21T11:40:07.860Z,27.40
2017-05-21T11:42:36.760Z,27.50
2017-05-21T11:45:05.696Z,27.40
2017-05-21T11:47:34.532Z,27.20
2017-05-21T11:50:03.404Z,26.60
2017-05-21T11:52:32.243Z,27.30
2017-05-21T11:55:01.084Z,27.10
2017-05-21T11:57:29.929Z,26.40
2017-05-21T11:59:58.752Z,26.10
2017-05-21T12:02:26.825Z,26.10
2017-05-21T12:04:55.692Z,27.10
2017-05-21T12:07:24.536Z,27.80
2017-05-21T12:09:53.392Z,28.10
2017-05-21T12:12:22.220Z,28.40
2017-05-21T12:14:51.052Z,27.90
2017-05-21T12:17:19.908Z,27.90
2017-05-21T12:19:48.732Z,27.50
2017-05-21T12:22:17.599Z,26.20
2017-05-21T12:24:46.432Z,25.50
2017-05-21T12:27:15.270Z,25.00
2017-05-21T12:29:44.127Z,24.70
2017-05-21T12:32:12.978Z,24.40
2017-05-21T12:34:41.812Z,24.40
2017-05-21T12:37:10.655Z,25.10
2017-05-21T12:39:38.737Z,25.10
2017-05-21T12:42:07.594Z,25.60
2017-05-21T12:44:36.419Z,25.50
2017-05-21T12:47:05.271Z,25.20
2017-05-21T12:49:34.116Z,24.80
2017-05-21T12:52:02.958Z,25.20
2017-05-21T12:54:31.783Z,26.00
2017-05-21T12:57:00.643Z,26.80
2017-05-21T12:59:29.467Z,27.00
2017-05-21T13:01:58.293Z,27.20
2017-05-21T13:04:27.132Z,27.50
2017-05-21T13:06:55.980Z,27.40
2017-05-21T13:09:24.832Z,27.00
2017-05-21T13:11:53.747Z,26.80
2017-05-21T13:14:22.608Z,26.70
2017-05-21T13:16:51.452Z,25.90
2017-05-21T13:19:20.283Z,26.30
2017-05-21T13:21:49.134Z,25.50
2017-05-21T13:24:17.955Z,25.00
2017-05-21T13:26:46.796Z,23.70
2017-05-21T13:29:15.655Z,23.40
2017-05-21T13:31:44.492Z,23.40
2017-05-21T13:34:13.343Z,23.40
2017-05-21T13:36:42.177Z,23.40
2017-05-21T13:39:11.024Z,23.30
2017-05-21T13:41:39.874Z,23.50
2017-05-21T13:44:08.715Z,23.50
2017-05-21T13:46:37.555Z,23.80
2017-05-21T13:49:06.400Z,23.60
2017-05-21T13:51:35.241Z,23.90
2017-05-21T13:54:04.082Z,23.90
2017-05-21T13:56:32.924Z,23.50
2017-05-21T13:59:01.762Z,23.10
2017-05-21T14:01:30.596Z,22.90
2017-05-21T14:03:59.428Z,22.80
2017-05-21T14:06:28.281Z,22.90
2017-05-21T14:08:57.108Z,23.30
2017-05-21T14:11:25.966Z,23.80
2017-05-21T14:13:54.795Z,24.10
2017-05-21T14:16:23.628Z,24.10
2017-05-21T14:18:52.495Z,24.00
2017-05-21T14:21:21.307Z,24.10
2017-05-21T14:23:50.178Z,23.80
2017-05-21T14:26:19.030Z,23.70
2017-05-21T14:28:47.875Z,23.50
2017-05-21T14:31:16.710Z,23.50
2017-05-21T14:33:45.630Z,23.70
2017-05-21T14:36:14.490Z,23.90
2017-05-21T14:38:43.320Z,23.80
2017-05-21T14:41:12.177Z,23.50
2017-05-21T14:43:41.008Z,23.00
2017-05-21T14:46:09.865Z,22.90
2017-05-21T14:48:38.737Z,22.90
2017-05-21T14:51:07.578Z,22.90
2017-05-21T14:53:36.417Z,22.70
2017-05-21T14:56:05.254Z,22.70
2017-05-21T14:58:34.103Z,22.50
2017-05-21T15:01:02.944Z,22.50
2017-05-21T15:03:31.787Z,22.10
2017-05-21T15:06:00.620Z,22.10
2017-05-21T15:08:29.478Z,22.30
2017-05-21T15:10:58.344Z,22.50
2017-05-21T15:13:27.251Z,22.40
2017-05-21T15:15:56.101Z,22.40
2017-05-21T15:18:24.943Z,21.90
2017-05-21T15:20:53.786Z,22.00
2017-05-21T15:23:22.612Z,22.00
2017-05-21T15:25:51.468Z,22.00
2017-05-21T15:28:20.299Z,22.10
2017-05-21T15:30:49.144Z,22.00
2017-05-21T15:33:17.981Z,22.10
2017-05-21T15:35:46.062Z,22.10
2017-05-21T15:38:14.888Z,22.30
2017-05-21T15:40:43.746Z,22.30
2017-05-21T15:43:12.567Z,22.20
2017-05-21T15:45:41.400Z,21.90
2017-05-21T15:48:10.257Z,21.80
2017-05-21T15:50:39.114Z,21.80
2017-05-21T15:53:07.962Z,21.50
2017-05-21T15:55:36.810Z,21.60
2017-05-21T15:58:05.660Z,21.40
2017-05-21T16:00:34.511Z,21.30
2017-05-21T16:03:03.349Z,21.20
2017-05-21T16:05:32.208Z,21.20
2017-05-21T16:08:01.065Z,20.90
2017-05-21T16:10:29.948Z,21.10
2017-05-21T16:12:58.020Z,21.10
2017-05-21T16:15:26.875Z,21.30
2017-05-21T16:17:55.716Z,21.10
2017-05-21T16:20:24.556Z,21.20
2017-05-21T16:22:53.402Z,21.20
2017-05-21T16:25:22.256Z,21.20
2017-05-21T16:27:51.102Z,21.20
2017-05-21T16:30:19.950Z,20.90
2017-05-21T16:32:48.775Z,20.60
2017-05-21T16:35:17.622Z,20.50
2017-05-21T16:37:46.460Z,20.30
2017-05-21T16:40:15.301Z,20.30
2017-05-21T16:42:44.205Z,20.00
2017-05-21T16:45:13.032Z,20.00
2017-05-21T16:47:41.864Z,19.90
2017-05-21T16:50:10.736Z,19.90
2017-05-21T16:52:39.569Z,19.90
2017-05-21T16:55:08.631Z,20.00
2017-05-21T16:57:37.527Z,20.00
2017-05-21T17:00:06.389Z,20.00
2017-05-21T17:02:35.236Z,20.00
2017-05-21T17:05:04.067Z,20.00
2017-05-21T17:07:32.904Z,20.00
2017-05-21T17:10:01.742Z,20.10
2017-05-21T17:12:30.589Z,20.10
2017-05-21T17:14:59.417Z,19.90
2017-05-21T17:17:28.283Z,19.90
2017-05-21T17:19:57.127Z,19.90
2017-05-21T17:22:25.983Z,20.00
2017-05-21T17:24:54.823Z,19.90
2017-05-21T17:27:23.658Z,19.90
2017-05-21T17:29:52.503Z,19.90
2017-05-21T17:32:21.350Z,19.80
2017-05-21T17:34:50.192Z,19.70
2017-05-21T17:37:19.091Z,19.60
2017-05-21T17:39:47.931Z,19.60
2017-05-21T17:42:16.808Z,19.50
2017-05-21T17:44:45.632Z,19.50
2017-05-21T17:47:14.506Z,19.40
2017-05-21T17:49:43.357Z,19.40
2017-05-21T17:52:12.234Z,19.40
2017-05-21T17:54:41.090Z,19.30
2017-05-21T17:57:09.933Z,19.30
2017-05-21T17:59:38.787Z,19.30
2017-05-21T18:02:07.643Z,19.30
2017-05-21T18:04:36.476Z,19.30
2017-05-21T18:07:05.339Z,19.10
2017-05-21T18:09:34.208Z,19.10
2017-05-21T18:12:03.063Z,19.10
2017-05-21T18:14:31.897Z,19.10
2017-05-21T18:17:00.724Z,19.00
2017-05-21T18:19:29.603Z,19.00
2017-05-21T18:21:58.442Z,18.80
2017-05-21T18:24:27.292Z,18.80
2017-05-21T18:26:56.156Z,18.80
2017-05-21T18:29:24.983Z,18.70
2017-05-21T18:31:53.817Z,18.60
2017-05-21T18:34:21.879Z,18.60
2017-05-21T18:36:49.984Z,18.60
2017-05-21T18:39:18.830Z,18.40
2017-05-21T18:41:47.655Z,18.50
2017-05-21T18:44:16.550Z,18.40
2017-05-21T18:46:45.397Z,18.30
2017-05-21T18:49:14.248Z,18.10
2017-05-21T18:51:43.100Z,18.10
2017-05-21T18:54:11.375Z,18.10
2017-05-21T18:56:40.209Z,17.90
2017-05-21T18:59:09.040Z,17.90
2017-05-21T19:01:37.884Z,17.80
2017-05-21T19:04:06.726Z,17.80
2017-05-21T19:06:35.575Z,17.70
2017-05-21T19:09:04.422Z,17.70
2017-05-21T19:11:32.477Z,17.70
2017-05-21T19:14:01.344Z,17.70
2017-05-21T19:16:30.167Z,17.60
2017-05-21T19:18:59.031Z,17.60
2017-05-21T19:21:27.884Z,17.50
2017-05-21T19:23:56.710Z,17.50
2017-05-21T19:26:25.551Z,17.40
2017-05-21T19:28:54.407Z,17.30
2017-05-21T19:31:23.246Z,17.20
2017-05-21T19:33:52.294Z,17.20
2017-05-21T19:36:21.152Z,17.10
2017-05-21T19:38:49.989Z,16.90
2017-05-21T19:41:18.835Z,16.90
2017-05-21T19:43:47.667Z,17.00
2017-05-21T19:46:16.514Z,16.80
2017-05-21T19:48:45.346Z,16.70
2017-05-21T19:51:14.207Z,16.70
2017-05-21T19:53:43.123Z,16.60
2017-05-21T19:56:11.968Z,16.50
2017-05-21T19:58:40.803Z,16.40
2017-05-21T20:01:09.671Z,16.20
2017-05-21T20:03:38.506Z,16.20
2017-05-21T20:06:07.366Z,16.20
2017-05-21T20:08:36.493Z,16.20
2017-05-21T20:11:05.327Z,16.00
2017-05-21T20:13:34.174Z,15.90
2017-05-21T20:16:03.005Z,15.90
2017-05-21T20:18:31.863Z,15.90
2017-05-21T20:20:59.920Z,15.80
2017-05-21T20:23:28.766Z,15.70
2017-05-21T20:25:57.596Z,15.60
2017-05-21T20:28:26.436Z,15.60
2017-05-21T20:30:55.287Z,15.50
2017-05-21T20:33:23.359Z,15.50
2017-05-21T20:35:52.203Z,15.40
2017-05-21T20:38:21.032Z,15.40
2017-05-21T20:40:49.898Z,15.30
2017-05-21T20:43:18.749Z,15.20
2017-05-21T20:45:47.571Z,15.10
2017-05-21T20:48:16.429Z,15.10
2017-05-21T20:50:45.277Z,15.10
2017-05-21T20:53:14.213Z,15.00
2017-05-21T20:55:42.280Z,15.00
2017-05-21T20:58:11.119Z,15.00
2017-05-21T21:00:39.963Z,14.50
2017-05-21T21:03:08.799Z,14.50
2017-05-21T21:05:37.646Z,14.60
2017-05-21T21:08:06.466Z,14.70
2017-05-21T21:10:35.303Z,14.60
2017-05-21T21:13:04.152Z,14.60
2017-05-21T21:15:33.013Z,14.50
2017-05-21T21:18:01.858Z,14.50
2017-05-21T21:20:29.919Z,14.50
2017-05-21T21:22:58.764Z,14.50
2017-05-21T21:25:27.592Z,14.50
2017-05-21T21:27:56.439Z,14.40
2017-05-21T21:30:25.281Z,14.40
2017-05-21T21:32:54.136Z,14.40
2017-05-21T21:35:22.968Z,14.40
2017-05-21T21:37:51.810Z,14.40
2017-05-21T21:40:20.662Z,14.40
2017-05-21T21:42:49.488Z,14.40
2017-05-21T21:45:18.315Z,14.30
2017-05-21T21:47:47.179Z,14.30
2017-05-21T21:50:15.263Z,14.30
2017-05-21T21:52:44.087Z,14.20
2017-05-21T21:55:12.915Z,14.10
2017-05-21T21:57:41.743Z,13.70
2017-05-21T22:00:10.588Z,13.40
2017-05-21T22:02:39.437Z,13.60
2017-05-21T22:05:08.278Z,13.70
2017-05-21T22:07:37.130Z,13.70
2017-05-21T22:10:05.984Z,13.60
2017-05-21T22:12:34.800Z,13.40
2017-05-21T22:15:03.637Z,13.30
2017-05-21T22:17:32.484Z,13.00
2017-05-21T22:20:01.334Z,13.10
2017-05-21T22:22:30.160Z,13.20
2017-05-21T22:24:59.036Z,13.40
2017-05-21T22:27:27.853Z,13.60
2017-05-21T22:29:56.678Z,13.50
2017-05-21T22:32:25.541Z,13.50
2017-05-21T22:34:54.387Z,13.50
2017-05-21T22:37:23.236Z,13.50
2017-05-21T22:39:52.075Z,13.50
2017-05-21T22:42:20.946Z,13.50
2017-05-21T22:44:49.780Z,13.50
2017-05-21T22:47:18.630Z,13.50
2017-05-21T22:49:46.695Z,13.50
2017-05-21T22:52:15.531Z,13.60
2017-05-21T22:54:43.599Z,13.60
2017-05-21T22:57:12.443Z,13.80
2017-05-21T22:59:41.306Z,13.70
2017-05-21T23:02:10.131Z,13.70
2017-05-21T23:04:38.982Z,13.60
2017-05-21T23:07:07.834Z,13.60
2017-05-21T23:09:36.664Z,13.40
2017-05-21T23:12:05.499Z,13.30
2017-05-21T23:14:33.584Z,13.30
2017-05-21T23:17:02.450Z,13.20
2017-05-21T23:19:31.300Z,13.10
2017-05-21T23:22:00.123Z,13.10
2017-05-21T23:24:28.973Z,13.00
2017-05-21T23:26:57.818Z,13.00
2017-05-21T23:29:26.647Z,13.00
2017-05-21T23:31:55.482Z,13.00
2017-05-21T23:34:24.430Z,13.00
2017-05-21T23:36:53.251Z,12.90
2017-05-21T23:39:22.099Z,12.90
2017-05-21T23:41:50.935Z,12.50
2017-05-21T23:44:19.767Z,12.60
2017-05-21T23:46:48.696Z,12.70
2017-05-21T23:49:18.679Z,12.80
2017-05-21T23:51:47.515Z,12.90
2017-05-21T23:54:16.365Z,12.90
2017-05-21T23:56:45.190Z,13.00
2017-05-21T23:59:14.028Z,12.90
